Hemet, CA

1:38 PM PDT on August 29, 2014 (GMT -0700)
Hemet-Valleywide | Change Station
CLOSE
Current Station
Personal Weather Station
Location: Hemet, CA
Elevation: 1555 ft
Nearby Weather Stations

Elev 1555 ft 33.76 °N, 116.98 °W | Updated 4 seconds ago

Clear
Clear
101.0 °F
Feels Like 98 °F
N
0.0
Wind Variable Wind from SE
Gusts 1.2 mph

Today
High -- | Low -- °F
--% Chance of Precip.
Yesterday
High -- | Low -- °F
Precip. -- in
6:19 AM 7:17 PM
Waxing Crescent, 16% visible
Pressure 29.88 in
Visibility 10.0 miles
Clouds Clear
Heat Index 98 °F
Dew Point 50 °F
Humidity 18%
Rainfall 0.00 in
Snow Depth Not available.
UV 11 out of 12
Pollen 7.70 out of 12
Ozone Good
PM2.5 Good
Flu Activity Not available.
METAR KF70 292015Z AUTO 22008KT 10SM CLR 35/09 A2988 RMK AO1

More Conditions Fewer Conditions

Pressure 29.88 in
Visibility 10.0 miles
Clouds Clear
Heat Index 98 °F
Dew Point 50 °F
Humidity 18%
Rainfall 0.00 in
Snow Depth Not available.
UV 11 out of 12
Pollen 7.70 out of 12
Ozone Good
PM2.5 Good
Flu Activity Not available.
METAR KF70 292015Z AUTO 22008KT 10SM CLR 35/09 A2988 RMK AO1

More Conditions Fewer Conditions

10-Day Weather Forecast

Almanac

Astronomy

Aug. 29, 2014 Rise Set
Actual Time 6:19 AM PDT 7:17 PM PDT
Civil Twilight 5:54 AM PDT 7:42 PM PDT
Nautical Twilight 5:23 AM PDT 8:12 PM PDT
Astronomical Twilight 4:52 AM PDT 8:44 PM PDT
Moon 10:00 AM PDT 9:31 PM PDT
Length of Visible Light 13h 48m
Length of Day
12h 57m
Tomorrow will be 1m 59s shorter.
Waxing Crescent, 16% of the Moon is Illuminated
Today
Waxing Crescent
Sep 2
First Quarter
Sep 8
Full
Sep 15
Last Quarter
Sep 24
New

Today's Extremes

State Highs State Lows

Community

WunderPhotos

Upload Photos

1,748,341 photos uploaded!

Nearby

Air Quality

  Air Quality AQ Index Pollutant
Yesterday Moderate
OZONE
Yesterday Moderate
PM2.5
Current Good
OZONE
Current Good
PM2.5
Saturday Good
PM10
Saturday Moderate
OZONE
Saturday Good
CO
Saturday Good
NO2

Snow Depth

Station Depth Elevation
Leavitt Meadows 0 in 7200 ft
Summit Meadow 0 in 9122 ft
CSS Lab 1 in 6900 ft
Adin Mountain 0 in 6200 ft
Cedar Pass 0 in 7100 ft

Earthquake Activity

City Distance Mag. Time & Date
No recent earthquake activity has been reported nearby.
Minimum magnitude displayed is 2.5.

Coastal Water Temperatures

Place Temperature
No Stations Reporting

Nearby Weather Stations